Time;durP1;ratioP1;P1;durP2;ratioP2;P2;SDS_P1;SDS_P2;PMS_P1;PMS_P2;Temp;Humidity;BMP_temperature;BMP_pressure;BME280_temperature;BME280_humidity;BME280_pressure;Samples;Min_cycle;Max_cycle;Signal;HPM_P1;HPM_P2
2021/06/08 00:00:15;;;;;;;10.87;10.00;;;20.40;99.90;;;;;;6271371;28;20191;-60
2021/06/08 00:03:18;;;;;;;12.20;11.10;;;20.40;99.90;;;;;;6273862;28;20223;-60
2021/06/08 00:06:21;;;;;;;11.37;10.57;;;20.40;99.90;;;;;;6273628;28;20195;-60
2021/06/08 00:09:24;;;;;;;11.43;10.40;;;20.40;99.90;;;;;;6273757;28;20537;-63
2021/06/08 00:12:28;;;;;;;15.00;10.50;;;20.40;99.90;;;;;;6273486;28;20743;-63
2021/06/08 00:15:31;;;;;;;11.67;10.77;;;20.40;99.90;;;;;;6273993;28;20227;-62
2021/06/08 00:18:34;;;;;;;11.70;10.80;;;20.40;99.90;;;;;;6273937;28;20231;-64
2021/06/08 00:21:37;;;;;;;10.80;10.10;;;20.40;99.90;;;;;;6274400;28;20234;-60
2021/06/08 00:24:40;;;;;;;10.77;9.83;;;20.40;99.90;;;;;;6274079;28;20349;-65
2021/06/08 00:27:44;;;;;;;11.50;10.53;;;20.40;99.90;;;;;;6273767;28;20234;-64
2021/06/08 00:30:48;;;;;;;11.57;10.47;;;20.30;99.90;;;;;;6277076;28;20234;-66
2021/06/08 00:33:53;;;;;;;11.97;11.10;;;20.30;99.90;;;;;;6279095;28;20252;-65
2021/06/08 00:36:55;;;;;;;12.30;11.13;;;20.30;99.90;;;;;;6278563;28;20234;-64
2021/06/08 00:39:58;;;;;;;10.83;9.90;;;20.30;99.90;;;;;;6278766;28;20680;-65
2021/06/08 00:43:02;;;;;;;11.40;10.40;;;20.30;99.90;;;;;;6274191;28;20242;-64
2021/06/08 00:46:05;;;;;;;10.47;9.57;;;20.20;99.90;;;;;;6278497;28;20238;-64
2021/06/08 00:49:08;;;;;;;13.47;12.27;;;20.20;99.90;;;;;;6278572;28;20227;-64
2021/06/08 00:52:11;;;;;;;12.67;11.67;;;20.20;99.90;;;;;;6278751;28;20669;-65
2021/06/08 00:55:13;;;;;;;11.57;10.70;;;20.10;99.90;;;;;;6278432;28;20238;-64
2021/06/08 00:58:17;;;;;;;11.47;10.47;;;20.20;99.90;;;;;;6278242;28;20232;-60
2021/06/08 01:01:20;;;;;;;11.57;10.67;;;20.10;99.90;;;;;;6278349;28;20240;-64
2021/06/08 01:08:46;;;;;;;12.30;11.10;;;20.10;99.90;;;;;;6278224;28;20224;-61
2021/06/08 01:11:49;;;;;;;10.80;10.00;;;20.10;99.90;;;;;;6278132;28;20334;-61
2021/06/08 01:14:53;;;;;;;12.13;11.13;;;20.00;99.90;;;;;;6278198;28;20305;-61
2021/06/08 01:17:56;;;;;;;15.87;12.23;;;20.00;99.90;;;;;;6277825;28;20242;-60
2021/06/08 01:21:02;;;;;;;11.37;10.47;;;19.90;99.90;;;;;;6277894;28;20231;-61
2021/06/08 01:24:05;;;;;;;11.27;10.37;;;19.90;99.90;;;;;;6277783;28;20239;-60
2021/06/08 01:27:09;;;;;;;11.40;10.50;;;19.90;99.90;;;;;;6277498;28;20235;-60
2021/06/08 01:30:13;;;;;;;11.83;11.03;;;19.80;99.90;;;;;;6277576;28;20223;-64
2021/06/08 01:33:16;;;;;;;10.53;9.77;;;19.90;99.90;;;;;;6277811;28;20203;-64
2021/06/08 01:36:22;;;;;;;11.03;10.13;;;19.90;99.90;;;;;;6277623;28;20207;-64
2021/06/08 01:39:26;;;;;;;9.93;9.13;;;19.80;99.90;;;;;;6278108;28;20199;-60
2021/06/08 01:42:29;;;;;;;11.40;10.60;;;19.80;99.90;;;;;;6277400;28;20231;-62
2021/06/08 01:45:32;;;;;;;11.37;10.57;;;19.80;99.90;;;;;;6273279;28;20680;-62
2021/06/08 01:48:35;;;;;;;11.20;10.40;;;19.80;99.90;;;;;;6277327;28;20232;-64
2021/06/08 01:51:49;;;;;;;10.77;10.03;;;19.80;99.90;;;;;;6277601;28;20242;-65
2021/06/08 01:54:57;;;;;;;11.00;10.10;;;19.80;99.90;;;;;;6277545;28;20239;-64
2021/06/08 01:58:09;;;;;;;11.67;10.60;;;19.70;99.90;;;;;;6277201;28;20250;-65
2021/06/08 02:01:16;;;;;;;12.00;10.80;;;19.70;99.90;;;;;;6277072;28;20238;-64
2021/06/08 02:04:25;;;;;;;11.17;10.37;;;19.60;99.90;;;;;;6276959;28;20270;-64
2021/06/08 02:07:56;;;;;;;11.73;10.73;;;19.60;99.90;;;;;;6243945;28;20270;-64
2021/06/08 02:11:05;;;;;;;11.23;10.23;;;19.60;99.90;;;;;;6277123;28;20232;-62
2021/06/08 02:14:14;;;;;;;10.70;9.77;;;19.60;99.90;;;;;;6276822;28;20677;-59
2021/06/08 02:17:21;;;;;;;11.70;10.70;;;19.60;99.90;;;;;;6277017;28;20231;-65
2021/06/08 02:20:28;;;;;;;12.10;11.10;;;19.60;99.90;;;;;;6276594;28;20540;-65
2021/06/08 02:23:35;;;;;;;11.27;10.43;;;19.50;99.90;;;;;;6276657;28;20224;-62
2021/06/08 02:26:41;;;;;;;11.47;10.67;;;19.50;99.90;;;;;;6276108;28;20797;-62
2021/06/08 02:29:48;;;;;;;11.57;10.67;;;19.50;99.90;;;;;;6276656;28;20231;-60
2021/06/08 02:32:52;;;;;;;11.70;10.90;;;19.50;99.90;;;;;;6276426;28;20246;-60
2021/06/08 02:35:57;;;;;;;12.30;11.20;;;19.50;99.90;;;;;;6276502;28;20234;-62
2021/06/08 02:39:02;;;;;;;12.83;11.73;;;19.50;99.90;;;;;;6275956;28;20236;-62
2021/06/08 02:42:07;;;;;;;11.33;10.43;;;19.40;99.90;;;;;;6276508;28;20238;-62
2021/06/08 02:45:11;;;;;;;11.77;10.87;;;19.40;99.90;;;;;;6275968;28;20228;-62
2021/06/08 02:48:15;;;;;;;11.03;10.07;;;19.40;99.90;;;;;;6276355;28;20223;-60
2021/06/08 02:51:21;;;;;;;10.87;10.07;;;19.40;99.90;;;;;;6266581;28;20200;-64
2021/06/08 02:54:26;;;;;;;11.40;10.50;;;19.40;99.90;;;;;;6275475;28;20442;-64
2021/06/08 02:57:30;;;;;;;10.53;9.73;;;19.30;99.90;;;;;;6275921;28;20232;-64
2021/06/08 03:00:33;;;;;;;11.97;10.93;;;19.30;99.90;;;;;;6275791;28;20227;-65
2021/06/08 03:03:39;;;;;;;11.20;10.10;;;19.30;99.90;;;;;;6275199;28;20228;-62
2021/06/08 03:06:48;;;;;;;11.50;10.50;;;19.30;99.90;;;;;;6272760;28;20581;-61
2021/06/08 03:09:58;;;;;;;11.37;10.47;;;19.20;99.90;;;;;;6275384;28;20238;-61
2021/06/08 03:13:01;;;;;;;10.30;9.40;;;19.20;99.90;;;;;;6275394;28;20231;-61
2021/06/08 03:16:06;;;;;;;10.90;10.10;;;19.30;99.90;;;;;;6275489;28;20231;-61
2021/06/08 03:19:15;;;;;;;11.37;10.47;;;19.20;99.90;;;;;;6275360;28;20293;-61
2021/06/08 03:22:20;;;;;;;11.50;10.60;;;19.20;99.90;;;;;;6275262;28;20238;-61
2021/06/08 03:25:25;;;;;;;11.40;10.50;;;19.20;99.90;;;;;;6274917;28;20258;-61
2021/06/08 03:28:31;;;;;;;11.43;10.53;;;19.10;99.90;;;;;;6274874;28;20232;-61
2021/06/08 03:31:36;;;;;;;11.13;10.30;;;19.10;99.90;;;;;;6275064;28;20238;-61
2021/06/08 03:34:40;;;;;;;11.00;10.10;;;19.10;99.90;;;;;;6274878;28;20223;-61
2021/06/08 03:37:43;;;;;;;11.13;10.23;;;19.10;99.90;;;;;;6274890;28;20239;-66
2021/06/08 03:40:48;;;;;;;12.83;11.13;;;19.10;99.90;;;;;;6275077;28;20228;-64
2021/06/08 03:43:51;;;;;;;11.30;10.23;;;19.10;99.90;;;;;;6274542;28;20227;-64
2021/06/08 03:46:54;;;;;;;16.07;11.37;;;19.20;99.90;;;;;;6274486;28;20227;-63
2021/06/08 03:49:58;;;;;;;14.80;11.10;;;19.20;99.90;;;;;;6274552;28;20227;-64
2021/06/08 03:53:02;;;;;;;11.87;10.67;;;19.20;99.90;;;;;;6274649;28;20231;-64
2021/06/08 03:56:08;;;;;;;12.00;10.83;;;19.20;99.90;;;;;;6270062;28;20231;-61
2021/06/08 03:59:12;;;;;;;11.90;10.93;;;19.20;99.90;;;;;;6274586;28;20243;-64
2021/06/08 04:02:18;;;;;;;12.57;11.57;;;19.30;99.90;;;;;;6274289;28;20231;-64
2021/06/08 04:05:21;;;;;;;10.07;9.27;;;19.30;99.90;;;;;;6273430;28;20293;-61
2021/06/08 04:08:27;;;;;;;10.53;9.63;;;19.40;99.90;;;;;;6274016;28;20231;-64
2021/06/08 04:11:31;;;;;;;12.17;11.10;;;19.40;99.90;;;;;;6274182;28;20242;-64
2021/06/08 04:14:36;;;;;;;11.90;11.00;;;19.50;99.90;;;;;;6274165;28;20223;-64
2021/06/08 04:17:39;;;;;;;12.10;11.10;;;19.50;99.90;;;;;;6274055;28;20241;-64
2021/06/08 04:20:42;;;;;;;11.13;10.13;;;19.50;99.90;;;;;;6273994;28;20703;-59
2021/06/08 04:23:45;;;;;;;11.73;9.97;;;19.50;99.90;;;;;;6274065;28;20688;-59
2021/06/08 04:26:49;;;;;;;11.77;10.67;;;19.50;99.90;;;;;;6273720;28;20239;-59
2021/06/08 04:29:52;;;;;;;11.00;10.10;;;19.60;99.90;;;;;;6273917;28;20246;-60
2021/06/08 04:32:55;;;;;;;11.70;10.70;;;19.70;99.90;;;;;;6274254;28;20242;-60
2021/06/08 04:35:58;;;;;;;11.47;10.33;;;19.80;99.90;;;;;;6273529;28;20699;-64
2021/06/08 04:39:01;;;;;;;10.90;9.87;;;19.90;99.90;;;;;;6273763;28;20231;-64
2021/06/08 04:42:06;;;;;;;11.03;10.03;;;20.00;99.90;;;;;;6273823;28;20231;-64
2021/06/08 04:45:10;;;;;;;12.47;11.40;;;20.00;99.90;;;;;;6273675;28;20238;-60
2021/06/08 04:48:13;;;;;;;11.67;10.67;;;20.00;99.90;;;;;;6273536;28;20238;-63
2021/06/08 04:51:16;;;;;;;11.30;10.30;;;20.20;99.90;;;;;;6273860;28;20215;-63
2021/06/08 04:54:22;;;;;;;11.60;10.60;;;20.20;99.90;;;;;;6274024;28;20212;-64
2021/06/08 04:57:28;;;;;;;10.30;9.40;;;20.40;99.90;;;;;;6273585;28;20224;-62
2021/06/08 05:00:37;;;;;;;16.00;10.40;;;20.60;99.90;;;;;;6269110;28;20659;-62
2021/06/08 05:03:42;;;;;;;12.17;9.40;;;20.70;99.80;;;;;;6273806;28;20223;-62
2021/06/08 05:06:49;;;;;;;11.27;9.13;;;20.80;99.40;;;;;;6273535;28;20242;-62
2021/06/08 05:09:53;;;;;;;10.77;9.77;;;20.80;99.10;;;;;;6273826;28;20227;-62
2021/06/08 05:12:58;;;;;;;10.33;9.60;;;21.00;99.20;;;;;;6273326;28;20719;-62
2021/06/08 05:16:03;;;;;;;9.80;8.80;;;21.10;99.00;;;;;;6275554;28;20236;-62
2021/06/08 05:19:07;;;;;;;10.50;9.70;;;21.20;98.80;;;;;;6278471;28;20227;-64
2021/06/08 05:22:11;;;;;;;10.57;9.67;;;21.30;98.60;;;;;;6278339;28;20227;-64
2021/06/08 05:25:14;;;;;;;10.87;9.97;;;21.40;98.30;;;;;;6277975;28;20694;-64
2021/06/08 05:28:19;;;;;;;10.30;9.00;;;21.50;97.80;;;;;;6277347;28;20242;-64
2021/06/08 05:31:22;;;;;;;10.47;9.57;;;21.60;97.90;;;;;;6277715;28;20696;-60
2021/06/08 05:34:26;;;;;;;11.00;10.10;;;21.60;97.50;;;;;;6277668;28;20237;-61
2021/06/08 05:37:29;;;;;;;10.83;9.93;;;21.70;97.50;;;;;;6277790;28;20239;-61
2021/06/08 05:40:32;;;;;;;9.83;9.03;;;21.70;97.00;;;;;;6277707;28;20238;-61
2021/06/08 05:43:37;;;;;;;10.37;9.40;;;21.80;96.40;;;;;;6277521;28;20231;-62
2021/06/08 05:46:41;;;;;;;11.13;9.37;;;22.00;96.30;;;;;;6277257;28;20250;-62
2021/06/08 05:49:43;;;;;;;10.80;10.00;;;22.20;96.10;;;;;;6277419;28;20289;-61
2021/06/08 05:52:47;;;;;;;11.00;10.20;;;22.30;95.50;;;;;;6277391;28;20227;-65
2021/06/08 05:55:51;;;;;;;10.60;9.70;;;22.30;95.20;;;;;;6277327;28;20250;-60
2021/06/08 05:58:55;;;;;;;10.37;9.50;;;22.20;94.70;;;;;;6277240;28;20236;-64
2021/06/08 06:01:58;;;;;;;9.73;8.93;;;22.20;95.00;;;;;;6277073;28;20246;-65
2021/06/08 06:05:01;;;;;;;10.30;8.80;;;22.30;95.30;;;;;;6272209;28;20724;-65
2021/06/08 06:08:05;;;;;;;11.90;10.90;;;22.60;94.90;;;;;;6276748;28;20252;-65
2021/06/08 06:11:09;;;;;;;10.30;9.50;;;23.00;94.00;;;;;;6277241;28;20238;-65
2021/06/08 06:14:14;;;;;;;9.90;9.07;;;23.40;93.80;;;;;;6276885;28;20228;-65
2021/06/08 06:17:19;;;;;;;10.00;9.10;;;23.90;92.00;;;;;;6276829;28;20239;-64
2021/06/08 06:20:22;;;;;;;10.40;9.50;;;24.40;91.30;;;;;;6276399;28;20254;-66
2021/06/08 06:23:26;;;;;;;9.63;8.83;;;24.90;90.70;;;;;;6276733;28;20238;-65
2021/06/08 06:26:29;;;;;;;9.80;9.00;;;25.40;88.50;;;;;;6275806;28;20256;-64
2021/06/08 06:29:33;;;;;;;9.40;8.60;;;26.00;86.10;;;;;;6275820;28;20231;-62
2021/06/08 06:32:37;;;;;;;9.67;8.97;;;26.50;83.00;;;;;;6276390;28;20237;-61
2021/06/08 06:35:40;;;;;;;9.57;8.47;;;27.20;79.40;;;;;;6276173;28;20572;-62
2021/06/08 06:38:45;;;;;;;11.83;8.87;;;27.70;76.50;;;;;;6276071;28;20245;-62
2021/06/08 06:41:50;;;;;;;9.23;8.33;;;28.00;74.00;;;;;;6276047;28;20740;-62
2021/06/08 06:44:55;;;;;;;11.60;8.83;;;28.50;70.10;;;;;;6276096;28;20226;-65
2021/06/08 06:48:02;;;;;;;10.63;9.10;;;28.60;67.00;;;;;;6276009;28;20243;-60
2021/06/08 06:51:05;;;;;;;9.40;8.17;;;29.10;65.50;;;;;;6275813;28;20561;-60
2021/06/08 06:54:09;;;;;;;9.17;8.30;;;29.10;63.10;;;;;;6275831;28;20239;-65
2021/06/08 06:57:12;;;;;;;10.47;9.60;;;28.80;63.20;;;;;;6275505;28;20539;-64
2021/06/08 07:00:17;;;;;;;8.43;7.73;;;28.90;63.70;;;;;;6275481;28;20515;-65
2021/06/08 07:03:27;;;;;;;11.33;10.33;;;29.40;60.70;;;;;;6275835;28;20213;-64
2021/06/08 07:06:30;;;;;;;9.60;8.80;;;30.00;58.50;;;;;;6270343;28;20223;-64
2021/06/08 07:09:34;;;;;;;9.00;8.10;;;31.00;56.80;;;;;;6274721;28;20348;-65
2021/06/08 07:12:39;;;;;;;8.05;7.45;;;32.20;55.30;;;;;;6271985;28;20556;-65
2021/06/08 07:15:46;;;;;;;9.85;8.93;;;33.10;51.70;;;;;;6274659;28;20233;-65
2021/06/08 07:18:51;;;;;;;8.95;8.07;;;33.70;48.90;;;;;;6272217;28;20688;-65
2021/06/08 07:21:56;;;;;;;7.40;6.90;;;34.60;47.30;;;;;;6274295;28;20226;-65
2021/06/08 07:24:59;;;;;;;7.93;7.30;;;35.40;42.90;;;;;;6274568;28;20218;-65
2021/06/08 07:28:03;;;;;;;7.72;7.10;;;36.10;41.90;;;;;;6274247;28;20218;-65
2021/06/08 07:31:09;;;;;;;7.68;6.63;;;36.20;38.30;;;;;;6274873;28;20234;-64
2021/06/08 07:34:20;;;;;;;7.65;7.18;;;36.80;38.50;;;;;;6271758;28;20630;-65
2021/06/08 07:37:25;;;;;;;7.50;6.90;;;37.00;36.50;;;;;;6274115;28;20219;-65
2021/06/08 07:40:31;;;;;;;7.45;6.78;;;37.00;36.40;;;;;;6274392;28;20237;-65
2021/06/08 07:43:37;;;;;;;7.43;6.93;;;36.50;35.20;;;;;;6271478;28;20229;-64
2021/06/08 07:46:42;;;;;;;8.35;7.65;;;35.80;36.50;;;;;;6273999;28;20238;-64
2021/06/08 07:49:48;;;;;;;6.43;5.85;;;35.20;37.10;;;;;;6273731;28;20241;-65
2021/06/08 07:52:52;;;;;;;5.93;5.53;;;34.80;33.40;;;;;;6272174;28;20223;-64
2021/06/08 07:55:55;;;;;;;5.68;5.28;;;34.10;32.70;;;;;;6273377;28;20237;-65
2021/06/08 07:58:58;;;;;;;4.78;4.47;;;33.60;31.60;;;;;;6274239;28;20226;-65
2021/06/08 08:02:03;;;;;;;5.53;5.13;;;33.40;30.70;;;;;;6274134;28;20234;-65
2021/06/08 08:05:10;;;;;;;6.22;5.75;;;33.00;30.10;;;;;;6274771;28;20223;-64
2021/06/08 08:08:16;;;;;;;5.10;4.60;;;32.60;31.80;;;;;;6272179;28;20222;-64
2021/06/08 08:11:19;;;;;;;5.88;5.47;;;32.80;31.30;;;;;;6273795;28;20227;-62
2021/06/08 08:14:23;;;;;;;6.05;5.53;;;32.60;32.00;;;;;;6269251;28;20223;-62
2021/06/08 08:17:28;;;;;;;5.95;5.55;;;32.30;32.40;;;;;;6273456;28;20241;-62
2021/06/08 08:20:42;;;;;;;5.32;4.93;;;31.90;32.90;;;;;;6271005;28;20219;-62
2021/06/08 08:23:46;;;;;;;6.50;5.90;;;31.70;32.10;;;;;;6273327;28;20227;-62
2021/06/08 08:26:49;;;;;;;6.18;5.18;;;31.50;33.10;;;;;;6270225;28;20231;-64
2021/06/08 08:29:52;;;;;;;5.47;5.03;;;31.30;32.20;;;;;;6273482;28;20241;-61
2021/06/08 08:32:56;;;;;;;5.53;5.17;;;30.70;31.90;;;;;;6273462;28;20687;-61
2021/06/08 08:36:01;;;;;;;5.90;5.40;;;30.50;32.30;;;;;;6273534;28;20530;-60
2021/06/08 08:39:05;;;;;;;5.53;5.13;;;30.30;32.40;;;;;;6273563;28;20564;-65
2021/06/08 08:42:08;;;;;;;6.20;5.73;;;29.80;33.70;;;;;;6273688;28;20225;-63
2021/06/08 08:45:12;;;;;;;5.77;5.37;;;30.00;34.60;;;;;;6273876;28;20237;-65
2021/06/08 08:48:16;;;;;;;6.17;5.57;;;29.90;34.20;;;;;;6272120;28;20301;-64
2021/06/08 08:51:20;;;;;;;6.33;5.50;;;30.10;35.40;;;;;;6274269;28;20229;-63
2021/06/08 08:54:25;;;;;;;5.77;5.37;;;30.10;33.50;;;;;;6277205;28;20203;-64
2021/06/08 08:57:29;;;;;;;6.10;5.60;;;30.20;33.90;;;;;;6276763;28;20844;-64
2021/06/08 09:00:33;;;;;;;6.57;6.03;;;30.00;33.50;;;;;;6277028;28;20203;-64
2021/06/08 09:03:39;;;;;;;6.23;5.60;;;29.50;34.70;;;;;;6278390;28;20223;-63
2021/06/08 09:06:41;;;;;;;5.70;5.30;;;29.70;36.00;;;;;;6278178;28;20575;-63
2021/06/08 09:09:45;;;;;;;5.93;5.50;;;30.00;34.90;;;;;;6278408;28;20226;-63
2021/06/08 09:12:49;;;;;;;7.03;5.73;;;30.20;34.90;;;;;;6278499;28;20222;-63
2021/06/08 09:15:52;;;;;;;6.67;6.10;;;30.20;34.70;;;;;;6278237;28;20238;-64
2021/06/08 09:18:57;;;;;;;6.10;5.60;;;30.30;35.30;;;;;;6277980;28;20250;-64
2021/06/08 09:22:00;;;;;;;5.87;5.37;;;30.20;34.50;;;;;;6277840;28;20223;-64
2021/06/08 09:25:03;;;;;;;5.50;5.10;;;30.40;34.90;;;;;;6278140;28;20227;-65
2021/06/08 09:28:26;;;;;;;7.03;5.90;;;30.30;33.90;;;;;;6277514;28;20239;-65
2021/06/08 09:31:30;;;;;;;6.50;6.10;;;30.10;33.10;;;;;;6278027;28;20223;-63
2021/06/08 09:34:37;;;;;;;6.23;5.63;;;29.80;33.30;;;;;;6277822;28;20276;-63
2021/06/08 09:37:42;;;;;;;6.50;5.90;;;29.90;34.10;;;;;;6277591;28;20245;-64
2021/06/08 09:40:45;;;;;;;5.83;5.30;;;30.10;34.50;;;;;;6277454;28;20721;-64
2021/06/08 09:43:59;;;;;;;5.47;5.07;;;30.20;35.70;;;;;;6277571;28;20250;-63
2021/06/08 09:47:02;;;;;;;6.37;5.93;;;30.30;35.00;;;;;;6277340;28;20596;-63
2021/06/08 09:50:32;;;;;;;5.50;4.93;;;30.10;33.20;;;;;;6277517;28;20237;-64
2021/06/08 09:53:36;;;;;;;5.80;5.33;;;30.20;32.60;;;;;;6277404;28;20245;-64
2021/06/08 09:56:41;;;;;;;6.37;5.87;;;30.30;31.60;;;;;;6277370;28;20575;-65
2021/06/08 09:59:47;;;;;;;5.60;5.07;;;30.50;32.90;;;;;;6277097;28;20250;-64
2021/06/08 10:02:50;;;;;;;5.83;5.43;;;30.50;33.10;;;;;;6275709;28;20227;-64
2021/06/08 10:06:05;;;;;;;6.50;6.00;;;30.50;32.20;;;;;;6276925;28;20230;-64
2021/06/08 10:09:10;;;;;;;5.50;5.10;;;30.60;32.80;;;;;;6276926;28;20242;-64
2021/06/08 10:12:17;;;;;;;5.43;5.13;;;30.70;32.90;;;;;;6277093;28;20226;-65
2021/06/08 10:15:20;;;;;;;6.10;5.70;;;30.90;32.20;;;;;;6277055;28;20211;-64
2021/06/08 10:18:24;;;;;;;5.57;5.17;;;31.10;32.90;;;;;;6272149;28;20227;-61
2021/06/08 10:21:46;;;;;;;6.00;5.28;;;31.40;32.10;;;;;;6276816;28;20199;-65
2021/06/08 10:24:49;;;;;;;5.40;5.00;;;31.40;31.00;;;;;;6276770;28;20223;-62
2021/06/08 10:27:52;;;;;;;5.90;5.50;;;31.10;30.80;;;;;;6276300;28;20231;-62
2021/06/08 10:30:56;;;;;;;4.90;4.53;;;30.80;30.50;;;;;;6276809;28;20231;-64
2021/06/08 10:34:14;;;;;;;5.15;4.75;;;30.70;31.20;;;;;;6276299;28;20234;-61
2021/06/08 10:37:20;;;;;;;6.10;5.70;;;30.90;31.80;;;;;;6276276;28;20226;-60
2021/06/08 10:40:22;;;;;;;6.43;6.03;;;31.20;31.40;;;;;;6276364;28;20249;-63
2021/06/08 10:43:28;;;;;;;5.97;5.47;;;31.00;31.10;;;;;;6276538;28;20247;-64
2021/06/08 10:46:35;;;;;;;6.38;5.80;;;31.00;32.00;;;;;;6275816;28;20573;-64
2021/06/08 10:49:40;;;;;;;5.28;4.97;;;30.80;32.10;;;;;;6276094;28;20238;-62
2021/06/08 10:52:47;;;;;;;5.05;4.65;;;30.70;31.60;;;;;;6276009;28;20269;-61
2021/06/08 10:55:50;;;;;;;5.60;5.20;;;30.90;31.70;;;;;;6275589;28;20237;-61
2021/06/08 10:58:58;;;;;;;5.78;5.38;;;31.00;31.60;;;;;;6275584;28;20235;-62
2021/06/08 11:02:00;;;;;;;4.30;4.00;;;30.90;29.70;;;;;;6275280;28;20569;-62
2021/06/08 11:05:04;;;;;;;4.80;4.40;;;31.20;30.40;;;;;;6272480;28;20226;-62
2021/06/08 11:08:08;;;;;;;5.25;4.57;;;31.30;29.60;;;;;;6275036;28;20566;-61
2021/06/08 11:11:11;;;;;;;5.07;4.65;;;31.40;29.90;;;;;;6274915;28;20571;-65
2021/06/08 11:15:00;;;;;;;4.20;3.90;;;31.40;29.20;;;;;;6275079;28;20260;-64
2021/06/08 11:18:44;;;;;;;4.93;4.60;;;30.30;29.40;;;;;;6275291;28;20318;-64
2021/06/08 11:21:56;;;;;;;5.53;5.03;;;30.30;29.40;;;;;;6274263;28;20297;-64
2021/06/08 11:25:01;;;;;;;5.33;4.80;;;30.00;31.40;;;;;;6270553;28;20227;-63
2021/06/08 11:28:06;;;;;;;5.80;5.27;;;30.00;31.80;;;;;;6274225;28;20681;-62
2021/06/08 11:31:09;;;;;;;6.10;5.60;;;30.40;31.70;;;;;;6275085;28;20227;-64
2021/06/08 11:34:12;;;;;;;5.70;5.30;;;30.80;31.10;;;;;;6274835;28;20230;-63
2021/06/08 11:37:45;;;;;;;6.23;5.73;;;30.90;31.00;;;;;;6274785;28;20231;-63
2021/06/08 11:40:52;;;;;;;7.05;6.38;;;31.20;31.70;;;;;;6274597;28;20629;-63
2021/06/08 11:43:58;;;;;;;6.20;5.60;;;31.40;31.30;;;;;;6274946;28;20238;-63
2021/06/08 11:47:01;;;;;;;6.15;5.75;;;31.50;31.80;;;;;;6274238;28;20688;-65
2021/06/08 11:50:04;;;;;;;6.43;5.93;;;31.60;31.50;;;;;;6274574;28;20227;-64
2021/06/08 11:53:07;;;;;;;6.70;6.30;;;31.50;31.30;;;;;;6274393;28;20230;-64
2021/06/08 11:56:13;;;;;;;6.38;5.97;;;31.50;31.80;;;;;;6274448;28;20552;-62
2021/06/08 11:59:17;;;;;;;6.80;6.30;;;31.20;31.50;;;;;;6274348;28;20246;-63
2021/06/08 12:02:28;;;;;;;5.75;5.35;;;30.70;32.50;;;;;;6274457;28;20245;-64
2021/06/08 12:05:42;;;;;;;5.85;5.45;;;30.90;32.10;;;;;;6249675;28;20232;-64
2021/06/08 12:08:45;;;;;;;6.28;5.78;;;31.10;32.30;;;;;;6249525;28;20258;-64
2021/06/08 12:11:49;;;;;;;7.90;6.85;;;31.10;31.90;;;;;;6261189;28;20683;-63
2021/06/08 12:14:56;;;;;;;7.75;6.85;;;31.30;32.00;;;;;;6272992;28;20762;-64
2021/06/08 12:18:05;;;;;;;6.78;6.28;;;31.20;30.90;;;;;;6273755;28;20683;-63
2021/06/08 12:21:11;;;;;;;6.78;6.25;;;31.10;32.50;;;;;;6274045;28;20223;-63
2021/06/08 12:24:18;;;;;;;7.43;6.78;;;31.00;33.00;;;;;;6273560;28;20231;-64
2021/06/08 12:27:34;;;;;;;7.13;6.63;;;30.60;33.70;;;;;;6264009;28;20687;-64
2021/06/08 12:30:37;;;;;;;7.13;6.63;;;30.40;34.30;;;;;;6273983;28;20234;-64
2021/06/08 12:33:39;;;;;;;7.40;6.80;;;30.50;33.40;;;;;;6274425;28;20241;-65
2021/06/08 12:36:43;;;;;;;7.10;6.60;;;30.80;33.30;;;;;;6273429;28;20241;-65
2021/06/08 12:39:52;;;;;;;7.63;6.83;;;30.90;32.90;;;;;;6274261;28;20301;-63
2021/06/08 12:43:01;;;;;;;7.93;7.30;;;30.80;33.20;;;;;;6273540;28;20560;-61
2021/06/08 12:46:04;;;;;;;7.80;7.10;;;30.50;33.50;;;;;;6273054;28;20219;-62
2021/06/08 12:49:08;;;;;;;7.93;7.43;;;29.80;34.40;;;;;;6273276;28;20229;-64
2021/06/08 12:52:16;;;;;;;7.50;7.00;;;29.80;34.90;;;;;;6274099;28;20254;-64
2021/06/08 12:55:19;;;;;;;7.60;7.00;;;29.90;34.50;;;;;;6273873;28;20223;-64
2021/06/08 12:58:25;;;;;;;8.03;7.47;;;30.10;34.80;;;;;;6273715;28;20231;-63
2021/06/08 13:01:35;;;;;;;7.57;6.97;;;29.80;34.70;;;;;;6273389;28;20231;-65
2021/06/08 13:04:40;;;;;;;7.47;6.97;;;29.70;35.20;;;;;;6273638;28;20231;-61
2021/06/08 13:07:44;;;;;;;7.93;7.33;;;29.90;34.90;;;;;;6273585;28;20238;-62
2021/06/08 13:10:48;;;;;;;9.20;8.43;;;29.80;36.10;;;;;;6273570;28;20219;-62
2021/06/08 13:13:54;;;;;;;9.00;7.80;;;29.90;36.30;;;;;;6273378;28;20233;-61
2021/06/08 13:16:57;;;;;;;8.90;8.20;;;30.00;36.20;;;;;;6273060;28;20669;-65
2021/06/08 13:20:00;;;;;;;8.43;7.73;;;30.10;35.50;;;;;;6273291;28;20288;-62
2021/06/08 13:23:03;;;;;;;8.70;8.10;;;30.10;35.50;;;;;;6273213;28;20227;-61
2021/06/08 13:26:08;;;;;;;7.60;7.03;;;29.80;35.50;;;;;;6272762;28;20234;-63
2021/06/08 13:29:19;;;;;;;9.40;8.60;;;30.00;35.80;;;;;;6272920;28;20346;-63
2021/06/08 13:32:25;;;;;;;8.33;7.60;;;30.10;37.00;;;;;;6267932;28;20561;-62
2021/06/08 13:35:33;;;;;;;8.40;7.90;;;30.20;36.90;;;;;;6270995;28;20316;-63
2021/06/08 13:38:37;;;;;;;8.47;7.77;;;30.10;35.90;;;;;;6277063;28;20231;-64
2021/06/08 13:41:40;;;;;;;8.47;7.77;;;29.80;37.20;;;;;;6277540;28;20226;-63
2021/06/08 13:45:06;;;;;;;8.43;7.73;;;29.90;37.80;;;;;;6277544;28;20242;-62
2021/06/08 13:48:24;;;;;;;8.90;8.10;;;29.70;38.00;;;;;;6262071;28;20230;-61
2021/06/08 13:51:27;;;;;;;8.97;8.17;;;29.80;38.20;;;;;;6283488;28;20211;-63
2021/06/08 13:54:34;;;;;;;8.33;7.73;;;29.50;37.90;;;;;;6276938;28;20230;-62
2021/06/08 13:57:44;;;;;;;8.60;7.90;;;29.20;37.70;;;;;;6277261;28;20316;-62
2021/06/08 14:01:03;;;;;;;9.07;8.37;;;29.20;38.60;;;;;;6276938;28;20223;-61
2021/06/08 14:04:08;;;;;;;8.70;8.10;;;29.30;38.30;;;;;;6269759;28;20220;-61
2021/06/08 14:07:12;;;;;;;9.20;8.60;;;29.30;37.90;;;;;;6260197;28;20231;-64
2021/06/08 14:10:15;;;;;;;9.43;8.63;;;29.40;38.60;;;;;;6268965;28;20227;-60
2021/06/08 14:13:26;;;;;;;8.70;8.10;;;29.50;37.90;;;;;;6251618;28;20699;-61
2021/06/08 14:16:31;;;;;;;9.13;8.43;;;29.50;38.00;;;;;;6252160;28;20234;-60
2021/06/08 14:19:34;;;;;;;7.83;7.23;;;29.70;37.80;;;;;;6251707;28;20249;-61
2021/06/08 14:22:37;;;;;;;8.83;7.93;;;29.50;37.70;;;;;;6251827;28;20715;-63
2021/06/08 14:25:39;;;;;;;8.80;8.10;;;29.20;37.40;;;;;;6250230;28;20227;-62
2021/06/08 14:28:43;;;;;;;9.37;8.53;;;29.10;38.10;;;;;;6249126;28;20273;-64
2021/06/08 14:31:48;;;;;;;9.70;9.07;;;28.90;38.10;;;;;;6251565;28;20236;-62
2021/06/08 14:34:51;;;;;;;9.40;8.60;;;28.80;39.00;;;;;;6251561;28;20689;-62
2021/06/08 14:37:53;;;;;;;8.90;8.30;;;28.90;39.90;;;;;;6241930;28;20971;-61
2021/06/08 14:40:56;;;;;;;9.00;8.40;;;29.20;39.70;;;;;;6251536;28;20267;-60
2021/06/08 14:44:00;;;;;;;8.63;7.93;;;29.40;37.90;;;;;;6251445;28;20224;-60
2021/06/08 14:47:04;;;;;;;9.10;8.30;;;29.50;38.10;;;;;;6251451;28;20258;-62
2021/06/08 14:50:07;;;;;;;8.10;7.60;;;29.70;37.70;;;;;;6250432;28;20246;-64
2021/06/08 14:53:10;;;;;;;9.13;8.33;;;29.40;37.70;;;;;;6251174;28;20237;-65
2021/06/08 14:56:13;;;;;;;8.90;7.70;;;29.30;38.20;;;;;;6251179;28;20231;-64
2021/06/08 14:59:18;;;;;;;9.10;8.37;;;29.40;38.30;;;;;;6250959;28;20230;-63
2021/06/08 15:02:22;;;;;;;9.03;8.43;;;29.30;38.30;;;;;;6251115;28;20258;-64
2021/06/08 15:05:25;;;;;;;9.47;8.67;;;29.20;39.50;;;;;;6250261;28;20223;-63
2021/06/08 15:08:27;;;;;;;8.93;8.30;;;29.00;39.10;;;;;;6250801;28;20243;-61
2021/06/08 15:11:30;;;;;;;9.00;8.30;;;28.90;39.10;;;;;;6249716;28;20224;-62
2021/06/08 15:14:33;;;;;;;11.50;8.77;;;28.80;39.50;;;;;;6250007;28;20238;-64
2021/06/08 15:17:37;;;;;;;9.77;9.17;;;28.90;40.20;;;;;;6225723;28;20236;-62
2021/06/08 15:20:41;;;;;;;8.00;7.50;;;28.80;39.00;;;;;;6225803;28;20307;-61
2021/06/08 15:23:44;;;;;;;9.80;9.10;;;28.70;39.00;;;;;;6225585;28;20241;-61
2021/06/08 15:26:48;;;;;;;9.57;8.93;;;28.60;39.10;;;;;;6225785;28;20323;-62
2021/06/08 15:29:51;;;;;;;9.10;8.50;;;28.40;39.10;;;;;;6228328;28;20243;-61
2021/06/08 15:32:55;;;;;;;9.77;8.60;;;28.60;40.40;;;;;;6247822;28;20574;-60
2021/06/08 15:36:00;;;;;;;9.37;8.57;;;28.80;39.30;;;;;;6248915;28;20228;-62
2021/06/08 15:39:03;;;;;;;9.17;8.57;;;29.00;39.20;;;;;;6249738;28;20227;-62
2021/06/08 15:42:06;;;;;;;8.93;8.27;;;28.90;39.10;;;;;;6242954;28;20228;-65
2021/06/08 15:45:11;;;;;;;8.70;8.20;;;28.90;39.30;;;;;;6249519;28;20239;-61
2021/06/08 15:48:15;;;;;;;9.63;8.93;;;28.90;38.90;;;;;;6249692;28;20228;-62
2021/06/08 15:51:18;;;;;;;9.43;8.73;;;28.80;38.80;;;;;;6249107;28;20231;-60
2021/06/08 15:54:21;;;;;;;8.77;8.07;;;28.80;39.20;;;;;;6249737;28;20204;-59
2021/06/08 15:57:26;;;;;;;9.47;8.77;;;28.80;39.10;;;;;;6249045;28;20232;-61
2021/06/08 16:00:34;;;;;;;9.23;8.40;;;28.70;39.50;;;;;;6249872;28;20222;-62